Nearby Weather Observations


KTIP - Rantoul, Illinois, USA
Distance from station: ENE 12mi, 19km
Updated: Sun, 21-Jan-2018 9:55pm CST
Rain, Overcast
Rain, Overcast
 Wind from SE
Wind: SE 6 mph , 9 km/h
Temperature: 46°F , 8°C
Wind Chill: 43°F , 6°C
Dew Point: 45°F , 7°C
Humidity: 93%
Barometer: 29.88 inHg , 1011.9 hPa
Summary: Rain
Clouds: Overcast
Visibility: 3/4 mile , 5 km
Cloud details: Overcast 300 ft
2018/01/22 03:55 KTIP 220355Z AUTO 13005KT 3/4SM RA OVC003 08/07 A2988 RMK AO2 P0003 T00750074
KCMI - Champaign/Urbana, Illinois, USA
Distance from station: SSE 14mi, 22km
Updated: Sun, 21-Jan-2018 9:50pm CST
Light rain, Mist, Overcast
Light rain, Mist, Overcast
 Wind from S
Wind: S 14 mph , 22 km/h
Temperature: 48°F , 9°C
Wind Chill: 42°F , 6°C
Dew Point: 48°F , 9°C
Humidity: 100%
Barometer: 29.86 inHg , 1011.2 hPa
Summary: Light rain, Mist
Clouds: Overcast
Visibility: 2 miles , 3 km
Cloud details: Overcast 200 ft
2018/01/22 03:50 KCMI 220350Z 17012KT 2SM -RA BR OVC002 09/09 A2986 RMK AO2 SLP115 P0008 T00940094
 
KBMI - Bloomington/Norm, Illinois, USA
Distance from station: WNW 34mi, 55km
Updated: Sun, 21-Jan-2018 9:56pm CST
Light rain, Fog, Overcast
Light rain, Fog, Overcast
 Wind from SSE
Wind: SSE 14 mph , 22 km/h
Temperature: 46°F , 8°C
Wind Chill: 40°F , 4°C
Dew Point: 46°F , 8°C
Humidity: 100%
Barometer: 29.83 inHg , 1010.2 hPa
Summary: Light rain, Fog
Clouds: Overcast
Visibility: 1/4 mile , 2 km
Cloud details: Overcast 300 ft
2018/01/22 03:56 KBMI 220356Z 15012KT 1/4SM R20/1600FT -RA FG OVC003 08/08 A2983 RMK AO2 SLP129 P0000 T00830083
KDEC - Decatur, Illinois, USA
Distance from station: SW 37mi, 60km
Updated: Sun, 21-Jan-2018 9:54pm CST
Light rain, Mist, Overcast
Light rain, Mist, Overcast
 Wind from S
Wind: S 12 mph , 19 km/h
Temperature: 50°F , 10°C
Wind Chill: 45°F , 7°C
Dew Point: 50°F , 10°C
Humidity: 100%
Barometer: 29.84 inHg , 1010.5 hPa
Summary: Light rain, Mist
Clouds: Overcast
Visibility: 3 miles , 5 km
Cloud details: Overcast 200 ft
2018/01/22 03:54 KDEC 220354Z 17010KT 3SM -RA BR OVC002 10/10 A2984 RMK AO2 SLP107 P0010 T01000100
 
KDNV - Danville, Illinois, USA
Distance from station: E 40mi, 65km
Updated: Sun, 21-Jan-2018 9:55pm CST
Light rain, Overcast
Light rain, Overcast
 Wind from S
Wind: S 9 mph , 15 km/h
Temperature: 48°F , 9°C
Wind Chill: 44°F , 7°C
Dew Point: 48°F , 9°C
Humidity: 100%
Barometer: 29.87 inHg , 1011.5 hPa
Summary: Light rain
Clouds: Overcast
Visibility: 3 miles , 5 km
Cloud details: Overcast 300 ft
2018/01/22 03:55 KDNV 220355Z AUTO 17008KT 3SM -RA OVC003 09/09 A2987 RMK AO2 P0002 T00930093
KAAA - Lincoln, Illinois, USA
Distance from station: W 52mi, 83km
Updated: Sun, 21-Jan-2018 9:55pm CST
Mist, Overcast
Mist, Overcast
 Wind from S
Wind: S 10 mph , 17 km/h
Temperature: 54°F , 12°C
Dew Point: 54°F , 12°C
Humidity: 100%
Barometer: 29.81 inHg , 1009.5 hPa
Summary: Mist
Clouds: Overcast
Visibility: 4 miles , 6 km
Cloud details: Overcast 300 ft
2018/01/22 03:55 KAAA 220355Z AUTO 17009KT 4SM BR OVC003 12/12 A2981 RMK AO2 T01150115
 
KMTO - Mattoon/Charlest, Illinois, USA
Distance from station: S 52mi, 84km
Updated: Sun, 21-Jan-2018 9:53pm CST
Fog, Overcast
Fog, Overcast
 Wind from SSE
Wind: SSE 8 mph , 13 km/h
Temperature: 48°F , 9°C
Wind Chill: 44°F , 7°C
Dew Point: 48°F , 9°C
Humidity: 100%
Barometer: 29.87 inHg , 1011.5 hPa
Summary: Fog
Clouds: Overcast
Visibility: 1/2 mile , 2 km
Cloud details: Overcast 200 ft
2018/01/22 03:53 KMTO 220353Z AUTO 16007KT 1/2SM FG OVC002 09/09 A2987 RMK AO2 RAB28E43 SLP117 P0000 T00890089
KSPI - Springfield, Illinois, USA
Distance from station: WSW 74mi, 120km
Updated: Sun, 21-Jan-2018 9:52pm CST
Light rain, Overcast
Light rain, Overcast
 Wind from S
Wind: S 16 mph , 26 km/h
Temperature: 55°F , 13°C
Dew Point: 54°F , 12°C
Humidity: 94%
Barometer: 29.80 inHg , 1009.1 hPa
Summary: Light rain
Clouds: Overcast
Visibility: 10 miles , 16 km
Cloud details: Overcast 700 ft
2018/01/22 03:52 KSPI 220352Z 18014KT 10SM -RA OVC007 13/12 A2980 RMK AO2 RAB50 SLP092 P0000 T01280122
 
KLAF - Lafayette, Indiana, USA
Distance from station: E 76mi, 123km
Updated: Sun, 21-Jan-2018 9:54pm CST
Light rain, Mist, Overcast
Light rain, Mist, Overcast
 Wind from SSE
Wind: SSE 3 mph , 6 km/h
Temperature: 48°F , 9°C
Dew Point: 48°F , 9°C
Humidity: 100%
Barometer: 29.92 inHg , 1013.2 hPa
Summary: Light rain, Mist
Clouds: Overcast
Visibility: 2 1/2 miles , 2 km
Cloud details: Overcast 300 ft
2018/01/22 03:54 KLAF 220354Z AUTO 16003KT 2 1/2SM -RA BR OVC003 09/09 A2992 RMK AO2 RAB38 SLP133 P0000 T00890089
KPIA - Peoria, Illinois, USA
Distance from station: WNW 76mi, 123km
Updated: Sun, 21-Jan-2018 9:54pm CST
Fog, Overcast
Fog, Overcast
 Wind from SSE
Wind: SSE 10 mph , 17 km/h, Gust: 22 mph , 35 km/h
Temperature: 52°F , 11°C
Dew Point: 52°F , 11°C
Humidity: 100%
Barometer: 29.79 inHg , 1008.8 hPa
Summary: Fog
Clouds: Overcast
Visibility: 1/4 mile , 2 km
Cloud details: Overcast 200 ft
2018/01/22 03:54 KPIA 220354Z 16009G19KT 1/4SM R04/3500V4000FT FG VV002 11/11 A2979 RMK AO2 SLP090 T01060106 $
 
KHUF - Terre Haute, Indiana, USA
Distance from station: SE 77mi, 124km
Updated: Sun, 21-Jan-2018 9:53pm CST
Mist, Overcast
Mist, Overcast
 Wind from SSE
Wind: SSE 5 mph , 7 km/h
Temperature: 46°F , 8°C
Wind Chill: 44°F , 7°C
Dew Point: 46°F , 8°C
Humidity: 100%
Barometer: 29.92 inHg , 1013.2 hPa
Summary: Mist
Clouds: Overcast
Visibility: 3 miles , 5 km
Cloud details: Overcast 3200 ft
2018/01/22 03:53 KHUF 220353Z 15004KT 3SM BR OVC032 08/08 A2992 RMK AO2 SLP135 T00830078
K1H2 - Effingham, Illinois, USA
Distance from station: S 80mi, 129km
Updated: Sun, 21-Jan-2018 9:55pm CST
Mist, Overcast
Mist, Overcast
 Wind from ESE
Wind: ESE 9 mph , 15 km/h
Temperature: 50°F , 10°C
Wind Chill: 46°F , 8°C
Dew Point: 50°F , 10°C
Humidity: 100%
Barometer: 29.89 inHg , 1012.2 hPa
Summary: Mist
Clouds: Overcast
Visibility: 4 miles , 6 km
Cloud details: Partly cloudy 300 ft
Overcast 2400 ft
2018/01/22 03:55 K1H2 220355Z AUTO 12008KT 4SM BR SCT003 OVC024 10/10 A2989 RMK AO2 T01000100
 
KIND - Indianapolis, Indiana, USA
Distance from station: ESE 117mi, 133km
Updated: Sun, 21-Jan-2018 9:54pm CST
Mist, Overcast
Mist, Overcast
 Wind from SE
Wind: SE 7 mph , 11 km/h
Temperature: 48°F , 9°C
Wind Chill: 45°F , 7°C
Dew Point: 48°F , 9°C
Humidity: 100%
Barometer: 29.96 inHg , 1014.6 hPa
Summary: Mist
Clouds: Overcast
Visibility: 1 mile , 2 km
Cloud details: Overcast 200 ft
2018/01/22 03:54 KIND 220354Z 13006KT 1SM R05L/P6000FT BR OVC002 09/09 A2996 RMK AO2 SFC VIS 1 3/4 DZE47 SLP145 P0000 T00940094
KORD - Chicago O'hare, Illinois, USA
Distance from station: N 126mi, 203km
Updated: Sun, 21-Jan-2018 9:51pm CST
Fog, Overcast
Fog, Overcast
 Wind from SE
Wind: SE 7 mph , 11 km/h
Temperature: 43°F , 6°C
Wind Chill: 39°F , 4°C
Dew Point: 43°F , 6°C
Humidity: 100%
Barometer: 29.85 inHg , 1010.8 hPa
Summary: Fog
Clouds: Overcast
Visibility: 1/8 mile , 2 km
Cloud details: Overcast 200 ft
2018/01/22 03:51 KORD 220351Z 13006KT 1/8SM R10L/1600V1800FT FG VV002 06/06 A2985 RMK AO2 TWR VIS 1/4 DZE36 SLP113 P0000 T00610056
 
KSTL - St. Louis, Missouri, USA
Distance from station: SW 150mi, 185km
Updated: Sun, 21-Jan-2018 9:51pm CST
Overcast
Overcast
 Wind from S
Wind: S 13 mph , 20 km/h
Temperature: 57°F , 14°C
Dew Point: 55°F , 13°C
Humidity: 94%
Barometer: 29.80 inHg , 1009.1 hPa
Clouds: Overcast
Visibility: 8 miles , 13 km
Cloud details: Mostly cloudy 900 ft
Mostly cloudy 2100 ft
Overcast 2600 ft
2018/01/22 03:51 KSTL 220351Z 17011KT 8SM BKN009 BKN021 OVC026 14/13 A2980 RMK AO2 SLP090 T01390133